createdAt,value
2018-06-17T00:01:27.072Z,11.80
2018-06-17T00:03:54.971Z,11.70
2018-06-17T00:06:22.789Z,11.60
2018-06-17T00:08:50.437Z,11.60
2018-06-17T00:13:45.781Z,11.60
2018-06-17T00:16:14.077Z,11.50
2018-06-17T00:18:42.069Z,11.60
2018-06-17T00:21:09.786Z,11.50
2018-06-17T00:23:37.422Z,11.50
2018-06-17T00:26:05.614Z,11.50
2018-06-17T00:28:33.310Z,11.50
2018-06-17T00:31:01.031Z,11.50
2018-06-17T00:33:28.828Z,11.50
2018-06-17T00:35:56.691Z,11.40
2018-06-17T00:38:24.691Z,11.40
2018-06-17T00:40:52.498Z,11.40
2018-06-17T00:43:20.501Z,11.30
2018-06-17T00:45:48.219Z,11.30
2018-06-17T00:48:15.947Z,11.30
2018-06-17T00:50:43.916Z,11.30
2018-06-17T00:53:11.761Z,11.30
2018-06-17T00:55:39.593Z,11.30
2018-06-17T00:58:07.346Z,11.30
2018-06-17T01:00:35.428Z,11.20
2018-06-17T01:03:03.444Z,11.20
2018-06-17T01:05:31.238Z,11.20
2018-06-17T01:10:27.132Z,11.20
2018-06-17T01:12:54.905Z,11.20
2018-06-17T01:15:22.666Z,11.20
2018-06-17T01:17:50.541Z,11.10
2018-06-17T01:20:18.365Z,11.10
2018-06-17T01:22:46.075Z,11.00
2018-06-17T01:25:13.980Z,11.00
2018-06-17T01:27:41.701Z,11.00
2018-06-17T01:30:09.470Z,10.90
2018-06-17T01:32:37.606Z,10.90
2018-06-17T01:35:05.642Z,10.90
2018-06-17T01:37:33.699Z,10.90
2018-06-17T01:40:01.612Z,10.90
2018-06-17T01:42:29.596Z,10.90
2018-06-17T01:44:57.272Z,10.90
2018-06-17T01:47:25.058Z,10.80
2018-06-17T01:52:20.518Z,10.70
2018-06-17T01:54:48.250Z,10.70
2018-06-17T01:57:16.115Z,10.70
2018-06-17T01:59:44.060Z,10.70
2018-06-17T02:02:12.196Z,10.70
2018-06-17T02:04:45.575Z,10.80
2018-06-17T02:07:19.031Z,10.80
2018-06-17T02:09:52.377Z,10.80
2018-06-17T02:12:20.704Z,10.70
2018-06-17T02:17:27.161Z,10.80
2018-06-17T02:19:55.412Z,10.80
2018-06-17T02:22:23.456Z,10.80
2018-06-17T02:24:51.162Z,10.90
2018-06-17T02:27:19.402Z,10.80
2018-06-17T02:29:47.456Z,10.80
2018-06-17T02:32:15.491Z,10.90
2018-06-17T02:34:43.246Z,10.90
2018-06-17T02:37:11.192Z,10.80
2018-06-17T02:39:39.345Z,10.80
2018-06-17T02:42:08.189Z,10.80
2018-06-17T02:44:36.109Z,10.80
2018-06-17T02:47:09.485Z,10.80
2018-06-17T02:49:39.331Z,10.80
2018-06-17T02:52:13.507Z,10.80
2018-06-17T02:54:44.187Z,10.80
2018-06-17T02:57:13.375Z,10.80
2018-06-17T02:59:42.000Z,10.80
2018-06-17T03:04:37.868Z,10.80
2018-06-17T03:07:05.687Z,10.80
2018-06-17T03:16:57.341Z,10.80
2018-06-17T03:19:25.108Z,10.70
2018-06-17T03:21:53.082Z,10.70
2018-06-17T03:24:26.453Z,10.90
2018-06-17T03:26:59.758Z,10.90
2018-06-17T03:29:33.459Z,11.00
2018-06-17T03:32:06.716Z,11.00
2018-06-17T03:34:34.667Z,11.10
2018-06-17T03:37:02.559Z,11.10
2018-06-17T03:39:30.380Z,11.30
2018-06-17T03:41:58.086Z,11.40
2018-06-17T03:44:25.680Z,11.50
2018-06-17T03:46:53.374Z,11.60
2018-06-17T03:49:21.036Z,11.60
2018-06-17T03:51:48.731Z,11.70
2018-06-17T03:54:16.416Z,11.80
2018-06-17T03:56:44.222Z,11.80
2018-06-17T03:59:11.971Z,12.00
2018-06-17T04:04:07.288Z,12.20
2018-06-17T04:06:36.179Z,12.20
2018-06-17T04:09:06.027Z,12.30
2018-06-17T04:11:34.514Z,12.40
2018-06-17T04:14:02.314Z,12.50
2018-06-17T04:16:30.066Z,12.70
2018-06-17T04:18:57.803Z,12.80
2018-06-17T04:21:25.516Z,12.80
2018-06-17T04:23:53.393Z,12.90
2018-06-17T04:28:49.412Z,13.00
2018-06-17T04:31:17.620Z,13.20
2018-06-17T04:33:45.376Z,13.30
2018-06-17T04:36:13.065Z,13.50
2018-06-17T04:38:40.820Z,13.60
2018-06-17T04:41:08.649Z,13.80
2018-06-17T04:43:36.324Z,14.00
2018-06-17T04:46:04.180Z,14.10
2018-06-17T04:48:32.099Z,14.30
2018-06-17T04:50:59.800Z,14.30
2018-06-17T04:53:27.440Z,14.30
2018-06-17T04:55:55.168Z,14.30
2018-06-17T04:58:23.139Z,14.30
2018-06-17T05:00:50.812Z,14.30
2018-06-17T05:03:19.070Z,14.30
2018-06-17T05:05:47.036Z,14.40
2018-06-17T05:08:14.893Z,14.60
2018-06-17T05:10:42.830Z,14.70
2018-06-17T05:13:10.512Z,14.70
2018-06-17T05:15:38.739Z,14.70
2018-06-17T05:18:07.276Z,14.80
2018-06-17T05:20:35.457Z,14.90
2018-06-17T05:23:03.214Z,15.00
2018-06-17T05:25:31.025Z,15.40
2018-06-17T05:27:59.122Z,15.80
2018-06-17T05:32:55.033Z,16.90
2018-06-17T05:35:22.944Z,17.40
2018-06-17T05:37:50.633Z,17.50
2018-06-17T05:40:18.468Z,17.70
2018-06-17T05:42:46.700Z,17.50
2018-06-17T05:45:14.280Z,17.50
2018-06-17T05:47:42.230Z,17.50
2018-06-17T05:50:10.321Z,17.90
2018-06-17T06:00:01.465Z,21.10
2018-06-17T06:02:29.252Z,21.70
2018-06-17T06:04:57.034Z,22.30
2018-06-17T06:07:25.079Z,22.80
2018-06-17T06:09:53.245Z,22.80
2018-06-17T06:12:21.197Z,23.30
2018-06-17T06:14:49.100Z,23.80
2018-06-17T06:19:44.532Z,24.40
2018-06-17T06:22:12.236Z,24.80
2018-06-17T06:24:40.122Z,24.90
2018-06-17T06:27:07.882Z,25.00
2018-06-17T06:32:03.650Z,24.80
2018-06-17T06:34:31.410Z,24.80
2018-06-17T06:36:59.413Z,24.70
2018-06-17T06:39:27.664Z,24.30
2018-06-17T06:41:55.525Z,24.40
2018-06-17T06:44:23.490Z,24.60
2018-06-17T06:49:19.195Z,23.80
2018-06-17T06:51:47.237Z,23.20
2018-06-17T06:54:15.006Z,22.90
2018-06-17T06:56:42.934Z,22.70
2018-06-17T06:59:11.369Z,22.50
2018-06-17T07:01:50.317Z,21.80
2018-06-17T07:07:02.815Z,20.90
2018-06-17T07:09:41.826Z,20.50
2018-06-17T07:12:09.754Z,20.10
2018-06-17T07:14:37.777Z,19.80
2018-06-17T07:17:17.003Z,19.60
2018-06-17T07:19:44.749Z,19.40
2018-06-17T07:22:12.389Z,19.50
2018-06-17T07:24:40.368Z,19.60
2018-06-17T07:27:19.605Z,19.50
2018-06-17T07:29:47.778Z,19.70
2018-06-17T07:32:15.531Z,19.90
2018-06-17T07:34:43.226Z,20.00
2018-06-17T07:37:11.193Z,20.00
2018-06-17T07:40:18.707Z,20.10
2018-06-17T07:42:48.120Z,20.00
2018-06-17T07:45:15.792Z,19.90
2018-06-17T07:50:22.572Z,19.90
2018-06-17T07:55:24.056Z,20.10
2018-06-17T07:57:52.125Z,20.10
2018-06-17T08:00:20.056Z,20.20
2018-06-17T08:02:48.016Z,20.30
2018-06-17T08:05:15.907Z,20.50
2018-06-17T08:07:43.675Z,20.60
2018-06-17T08:12:39.268Z,20.80
2018-06-17T08:15:06.993Z,20.90
2018-06-17T08:17:34.903Z,20.90
2018-06-17T08:20:02.878Z,20.80
2018-06-17T08:22:30.855Z,20.70
2018-06-17T08:24:58.705Z,20.40
2018-06-17T08:27:27.135Z,20.30
2018-06-17T08:29:55.260Z,20.20
2018-06-17T08:32:23.266Z,20.00
2018-06-17T08:34:51.146Z,19.90
2018-06-17T08:37:19.264Z,19.80
2018-06-17T08:39:47.160Z,19.70
2018-06-17T08:42:14.995Z,19.60
2018-06-17T08:44:42.657Z,19.50
2018-06-17T08:47:10.381Z,19.40
2018-06-17T08:49:38.354Z,19.40
2018-06-17T08:52:06.242Z,19.50
2018-06-17T08:54:34.046Z,19.80
2018-06-17T08:57:01.995Z,20.10
2018-06-17T08:59:29.690Z,20.40
2018-06-17T09:01:57.340Z,20.60
2018-06-17T09:06:52.814Z,20.80
2018-06-17T09:09:20.584Z,20.90
2018-06-17T09:11:49.204Z,21.00
2018-06-17T09:16:44.490Z,21.80
2018-06-17T09:19:12.143Z,22.00
2018-06-17T09:21:39.953Z,21.90
2018-06-17T09:24:07.608Z,21.80
2018-06-17T09:26:35.948Z,21.60
2018-06-17T09:29:04.064Z,21.30
2018-06-17T09:34:00.161Z,21.20
2018-06-17T09:36:29.262Z,21.00
2018-06-17T09:38:57.034Z,21.30
2018-06-17T09:41:24.903Z,21.50
2018-06-17T09:43:54.428Z,21.80
2018-06-17T09:46:22.589Z,22.20
2018-06-17T09:48:50.863Z,22.80
2018-06-17T09:51:19.153Z,23.20
2018-06-17T09:53:47.880Z,23.30
2018-06-17T09:56:15.919Z,23.40
2018-06-17T10:01:12.078Z,23.90
2018-06-17T10:03:39.790Z,24.00
2018-06-17T10:06:07.754Z,24.00
2018-06-17T10:08:35.566Z,23.90
2018-06-17T10:13:33.197Z,24.00
2018-06-17T10:16:01.257Z,23.90
2018-06-17T10:18:30.550Z,23.80
2018-06-17T10:20:58.336Z,23.60
2018-06-17T10:23:26.292Z,23.90
2018-06-17T10:25:54.052Z,24.20
2018-06-17T10:28:23.843Z,24.60
2018-06-17T10:30:52.565Z,25.00
2018-06-17T10:33:20.622Z,25.20
2018-06-17T10:35:48.666Z,25.10
2018-06-17T10:38:16.489Z,24.70
2018-06-17T10:40:44.553Z,24.20
2018-06-17T10:43:14.702Z,23.90
2018-06-17T10:48:10.689Z,24.60
2018-06-17T10:50:38.418Z,24.90
2018-06-17T10:53:06.887Z,25.10
2018-06-17T10:55:34.957Z,24.90
2018-06-17T10:58:02.671Z,25.00
2018-06-17T11:00:30.318Z,25.40
2018-06-17T11:02:58.522Z,25.60
2018-06-17T11:05:26.384Z,25.70
2018-06-17T11:07:54.222Z,25.40
2018-06-17T11:10:22.102Z,25.30
2018-06-17T11:12:49.825Z,25.20
2018-06-17T11:15:17.517Z,24.80
2018-06-17T11:17:45.291Z,24.70
2018-06-17T11:20:13.246Z,24.80
2018-06-17T11:22:41.327Z,25.20
2018-06-17T11:25:09.260Z,25.50
2018-06-17T11:27:37.873Z,25.40
2018-06-17T11:30:06.862Z,25.20
2018-06-17T11:32:35.067Z,25.10
2018-06-17T11:35:03.031Z,25.00
2018-06-17T11:37:30.909Z,24.80
2018-06-17T11:39:58.802Z,24.70
2018-06-17T11:42:26.613Z,24.60
2018-06-17T11:44:54.254Z,24.70
2018-06-17T11:47:22.071Z,24.80
2018-06-17T11:52:17.577Z,24.90
2018-06-17T11:54:45.655Z,24.90
2018-06-17T11:57:13.574Z,24.80
2018-06-17T11:59:41.547Z,24.80
2018-06-17T12:02:09.651Z,24.70
2018-06-17T12:04:37.802Z,24.50
2018-06-17T12:07:05.760Z,24.60
2018-06-17T12:09:33.615Z,24.50
2018-06-17T12:12:01.416Z,24.60
2018-06-17T12:14:29.964Z,24.60
2018-06-17T12:16:57.734Z,24.60
2018-06-17T12:19:25.684Z,24.60
2018-06-17T12:21:53.715Z,24.50
2018-06-17T12:24:21.451Z,24.40
2018-06-17T12:26:49.456Z,24.30
2018-06-17T12:29:17.545Z,24.20
2018-06-17T12:31:45.622Z,24.10
2018-06-17T12:34:14.475Z,24.00
2018-06-17T12:36:42.415Z,24.00
2018-06-17T12:39:12.891Z,24.00
2018-06-17T12:49:04.395Z,24.30
2018-06-17T12:51:32.244Z,24.20
2018-06-17T12:54:00.257Z,24.20
2018-06-17T12:56:27.905Z,24.10
2018-06-17T12:58:55.999Z,24.10
2018-06-17T13:01:24.073Z,24.20
2018-06-17T13:03:52.832Z,24.10
2018-06-17T13:06:21.026Z,24.10
2018-06-17T13:08:48.724Z,23.90
2018-06-17T13:13:44.050Z,23.70
2018-06-17T13:18:39.876Z,23.80
2018-06-17T13:23:35.091Z,23.70
2018-06-17T13:26:02.846Z,23.60
2018-06-17T13:28:30.790Z,23.70
2018-06-17T13:30:58.723Z,23.80
2018-06-17T13:33:26.645Z,23.90
2018-06-17T13:35:54.868Z,24.10
2018-06-17T13:38:22.910Z,24.10
2018-06-17T13:43:18.368Z,24.00
2018-06-17T13:45:46.169Z,24.00
2018-06-17T13:48:14.076Z,24.00
2018-06-17T13:50:41.999Z,24.00
2018-06-17T13:53:10.018Z,24.20
2018-06-17T13:55:37.982Z,24.40
2018-06-17T13:58:06.124Z,24.30
2018-06-17T14:00:34.342Z,24.00
2018-06-17T14:03:02.256Z,24.00
2018-06-17T14:05:30.371Z,23.90
2018-06-17T14:10:26.243Z,23.90
2018-06-17T14:12:54.469Z,24.00
2018-06-17T14:15:22.415Z,24.00
2018-06-17T14:17:50.122Z,24.10
2018-06-17T14:20:17.929Z,24.00
2018-06-17T14:22:45.810Z,24.00
2018-06-17T14:25:13.488Z,24.10
2018-06-17T14:30:09.210Z,24.30
2018-06-17T14:32:37.301Z,24.40
2018-06-17T14:37:33.125Z,24.40
2018-06-17T14:42:34.500Z,23.90
2018-06-17T14:45:07.825Z,23.50
2018-06-17T14:47:41.171Z,23.30
2018-06-17T14:50:14.693Z,23.30
2018-06-17T14:52:47.830Z,23.40
2018-06-17T14:55:15.585Z,23.50
2018-06-17T14:57:43.383Z,23.50
2018-06-17T15:00:11.138Z,23.60
2018-06-17T15:02:38.851Z,23.70
2018-06-17T15:05:06.716Z,23.70
2018-06-17T15:07:34.706Z,23.70
2018-06-17T15:10:02.742Z,23.60
2018-06-17T15:12:30.557Z,23.70
2018-06-17T15:14:59.790Z,23.60
2018-06-17T15:22:23.384Z,23.30
2018-06-17T15:27:19.107Z,23.50
2018-06-17T15:29:47.260Z,23.70
2018-06-17T15:32:21.105Z,23.80
2018-06-17T15:34:54.504Z,23.60
2018-06-17T15:39:57.204Z,23.70
2018-06-17T15:42:25.029Z,23.70
2018-06-17T15:44:52.923Z,23.60
2018-06-17T15:49:48.381Z,23.70
2018-06-17T15:52:16.087Z,23.50
2018-06-17T15:54:43.784Z,23.50
2018-06-17T16:02:08.039Z,23.00
2018-06-17T16:04:35.557Z,22.80
2018-06-17T16:07:03.777Z,22.60
2018-06-17T16:09:31.668Z,22.30
2018-06-17T16:12:05.059Z,22.10
2018-06-17T16:14:38.581Z,21.90
2018-06-17T16:19:45.355Z,21.70
2018-06-17T16:22:13.175Z,21.60
2018-06-17T16:24:41.221Z,21.60
2018-06-17T16:27:09.042Z,21.60
2018-06-17T16:29:37.192Z,21.50
2018-06-17T16:32:05.180Z,21.50
2018-06-17T16:34:33.216Z,21.40
2018-06-17T16:37:00.905Z,21.30
2018-06-17T16:39:28.856Z,21.20
2018-06-17T16:41:56.894Z,21.10
2018-06-17T16:44:24.760Z,21.00
2018-06-17T16:46:53.499Z,21.00
2018-06-17T16:49:21.308Z,20.90
2018-06-17T16:54:28.089Z,20.80
2018-06-17T16:59:34.802Z,20.60
2018-06-17T17:02:02.552Z,20.40
2018-06-17T17:06:58.756Z,20.00
2018-06-17T17:09:26.591Z,19.80
2018-06-17T17:11:54.196Z,19.70
2018-06-17T17:14:22.093Z,19.70
2018-06-17T17:16:50.835Z,19.60
2018-06-17T17:19:18.760Z,19.40
2018-06-17T17:21:46.503Z,19.40
2018-06-17T17:24:14.472Z,19.40
2018-06-17T17:26:42.733Z,19.40
2018-06-17T17:29:10.534Z,19.40
2018-06-17T17:31:43.958Z,19.50
2018-06-17T17:34:17.222Z,19.30
2018-06-17T17:36:50.660Z,19.20
2018-06-17T17:39:25.003Z,19.20
2018-06-17T17:44:20.891Z,18.90
2018-06-17T17:46:54.340Z,19.00
2018-06-17T17:51:50.648Z,19.10
2018-06-17T17:54:18.655Z,18.90
2018-06-17T17:59:14.149Z,18.70
2018-06-17T18:01:42.079Z,18.60
2018-06-17T18:04:09.819Z,18.50
2018-06-17T18:06:37.829Z,18.50
2018-06-17T18:09:07.891Z,18.50
2018-06-17T18:14:05.279Z,18.70
2018-06-17T18:16:33.289Z,18.60
2018-06-17T18:19:00.944Z,18.60
2018-06-17T18:21:28.785Z,18.50
2018-06-17T18:23:57.713Z,18.50
2018-06-17T18:26:31.420Z,18.40
2018-06-17T18:29:04.711Z,18.50
2018-06-17T18:31:38.062Z,18.40
2018-06-17T18:34:11.882Z,18.50
2018-06-17T18:36:39.838Z,18.40
2018-06-17T18:39:08.745Z,18.30
2018-06-17T18:41:36.724Z,18.10
2018-06-17T18:44:05.583Z,18.00
2018-06-17T18:46:33.676Z,18.00
2018-06-17T18:49:02.589Z,18.00
2018-06-17T18:51:30.677Z,17.90
2018-06-17T18:53:59.038Z,17.70
2018-06-17T18:56:27.080Z,17.70
2018-06-17T18:58:55.320Z,17.80
2018-06-17T19:03:51.592Z,17.80
2018-06-17T19:06:19.912Z,17.70
2018-06-17T19:08:53.619Z,17.60
2018-06-17T19:11:27.315Z,17.50
2018-06-17T19:15:00.760Z,17.40
2018-06-17T19:17:35.574Z,17.30
2018-06-17T19:20:03.675Z,17.20
2018-06-17T19:22:31.671Z,17.10
2018-06-17T19:24:59.557Z,17.10
2018-06-17T19:27:27.377Z,17.10
2018-06-17T19:29:55.548Z,17.10
2018-06-17T19:32:23.294Z,17.10
2018-06-17T19:34:52.162Z,17.10
2018-06-17T19:37:20.564Z,17.10
2018-06-17T19:39:48.901Z,17.00
2018-06-17T19:42:17.084Z,17.00
2018-06-17T19:44:44.857Z,16.90
2018-06-17T19:47:13.105Z,16.90
2018-06-17T19:49:46.694Z,16.80
2018-06-17T19:52:20.455Z,16.80
2018-06-17T19:54:53.678Z,16.80
2018-06-17T19:57:27.139Z,16.70
2018-06-17T20:00:00.668Z,16.70
2018-06-17T20:02:28.721Z,16.60
2018-06-17T20:04:57.317Z,16.50
2018-06-17T20:07:25.208Z,16.40
2018-06-17T20:09:53.091Z,16.50
2018-06-17T20:12:20.937Z,16.50
2018-06-17T20:14:49.125Z,16.50
2018-06-17T20:17:17.331Z,16.40
2018-06-17T20:19:45.477Z,16.30
2018-06-17T20:22:13.368Z,16.30
2018-06-17T20:24:41.257Z,16.20
2018-06-17T20:27:09.166Z,16.20
2018-06-17T20:29:37.174Z,16.20
2018-06-17T20:34:44.745Z,16.10
2018-06-17T20:37:18.286Z,16.10
2018-06-17T20:42:25.037Z,16.10
2018-06-17T20:44:52.810Z,16.00
2018-06-17T20:47:20.524Z,16.00
2018-06-17T20:49:48.408Z,15.90
2018-06-17T20:52:16.228Z,15.80
2018-06-17T20:57:11.438Z,15.70
2018-06-17T20:59:39.286Z,15.60
2018-06-17T21:02:07.120Z,15.60
2018-06-17T21:04:35.107Z,15.50
2018-06-17T21:07:02.883Z,15.50
2018-06-17T21:09:30.714Z,15.50
2018-06-17T21:11:58.482Z,15.40
2018-06-17T21:14:26.365Z,15.40
2018-06-17T21:16:54.208Z,15.40
2018-06-17T21:19:27.590Z,15.50
2018-06-17T21:22:01.490Z,15.50
2018-06-17T21:24:34.736Z,15.50
2018-06-17T21:27:08.175Z,15.40
2018-06-17T21:29:36.160Z,15.30
2018-06-17T21:32:04.115Z,15.30
2018-06-17T21:34:31.897Z,15.20
2018-06-17T21:36:59.741Z,15.20
2018-06-17T21:39:27.625Z,15.20
2018-06-17T21:41:55.536Z,15.20
2018-06-17T21:44:23.616Z,15.10
2018-06-17T21:46:51.698Z,15.00
2018-06-17T21:49:19.692Z,15.00
2018-06-17T21:51:47.435Z,15.00
2018-06-17T21:59:10.631Z,14.80
2018-06-17T22:04:11.680Z,14.80
2018-06-17T22:12:48.821Z,14.70
2018-06-17T22:15:22.161Z,14.70
2018-06-17T22:17:51.394Z,14.60
2018-06-17T22:22:47.379Z,14.50
2018-06-17T22:25:15.262Z,14.50
2018-06-17T22:27:43.008Z,14.60
2018-06-17T22:30:10.890Z,14.60
2018-06-17T22:32:38.605Z,14.50
2018-06-17T22:37:34.058Z,14.50
2018-06-17T22:40:01.868Z,14.40
2018-06-17T22:42:30.058Z,14.40
2018-06-17T22:47:31.032Z,14.20
2018-06-17T22:49:59.075Z,14.20
2018-06-17T22:57:28.198Z,14.10
2018-06-17T23:00:01.478Z,14.00
2018-06-17T23:02:34.962Z,14.00
2018-06-17T23:05:08.308Z,14.00
2018-06-17T23:07:41.781Z,14.10
2018-06-17T23:12:38.156Z,14.10
2018-06-17T23:15:06.650Z,14.10
2018-06-17T23:17:34.753Z,14.10
2018-06-17T23:20:02.522Z,14.10
2018-06-17T23:22:30.416Z,14.10
2018-06-17T23:24:58.066Z,14.10
2018-06-17T23:27:26.155Z,14.10
2018-06-17T23:32:21.742Z,14.20
2018-06-17T23:34:49.843Z,14.20
2018-06-17T23:37:18.510Z,14.10
2018-06-17T23:39:46.493Z,14.10
2018-06-17T23:44:41.899Z,14.20
2018-06-17T23:47:15.403Z,14.20
2018-06-17T23:49:48.762Z,14.20
2018-06-17T23:52:22.457Z,14.30
2018-06-17T23:54:55.890Z,14.30
2018-06-17T23:57:23.750Z,14.20
2018-06-17T23:59:51.769Z,14.20
